createdAt,value
2023-04-02T00:00:28.149Z,72.45
2023-04-02T00:01:28.132Z,72.33
2023-04-02T00:02:28.231Z,68.41
2023-04-02T00:03:28.129Z,73.11
2023-04-02T00:04:28.106Z,67.43
2023-04-02T00:05:28.066Z,75.05
2023-04-02T00:06:28.039Z,73.30
2023-04-02T00:07:28.329Z,70.16
2023-04-02T00:08:28.000Z,72.30
2023-04-02T00:09:28.007Z,69.70
2023-04-02T00:10:27.977Z,73.49
2023-04-02T00:11:27.951Z,67.99
2023-04-02T00:12:27.922Z,70.54
2023-04-02T00:13:27.905Z,73.18
2023-04-02T00:14:27.913Z,73.10
2023-04-02T00:15:27.865Z,74.17
2023-04-02T00:16:27.878Z,70.97
2023-04-02T00:17:27.832Z,72.28
2023-04-02T00:18:27.952Z,70.50
2023-04-02T00:19:27.812Z,72.43
2023-04-02T00:20:27.785Z,67.25
2023-04-02T00:21:27.749Z,71.78
2023-04-02T00:22:27.730Z,68.98
2023-04-02T00:23:27.707Z,71.29
2023-04-02T00:24:27.729Z,70.50
2023-04-02T00:25:27.677Z,73.38
2023-04-02T00:26:27.659Z,72.58
2023-04-02T00:27:27.636Z,69.72
2023-04-02T00:28:27.615Z,74.53
2023-04-02T00:29:27.633Z,70.07
2023-04-02T00:30:27.586Z,69.35
2023-04-02T00:31:27.605Z,68.95
2023-04-02T00:32:27.618Z,70.51
2023-04-02T00:33:27.524Z,68.53
2023-04-02T00:34:27.535Z,63.22
2023-04-02T00:35:27.493Z,68.69
2023-04-02T00:36:27.468Z,66.64
2023-04-02T00:37:27.460Z,66.47
2023-04-02T00:38:27.436Z,70.63
2023-04-02T00:39:27.463Z,73.00
2023-04-02T00:40:27.384Z,72.02
2023-04-02T00:41:27.374Z,69.88
2023-04-02T00:42:27.349Z,69.16
2023-04-02T00:43:27.330Z,69.96
2023-04-02T00:44:27.345Z,72.60
2023-04-02T00:45:27.311Z,73.52
2023-04-02T00:46:27.375Z,68.69
2023-04-02T00:47:27.290Z,67.74
2023-04-02T00:48:27.237Z,66.85
2023-04-02T00:49:27.252Z,72.09
2023-04-02T00:50:27.208Z,66.09
2023-04-02T00:51:27.189Z,72.36
2023-04-02T00:52:27.162Z,73.41
2023-04-02T00:53:27.172Z,73.51
2023-04-02T00:54:27.157Z,67.69
2023-04-02T00:55:27.117Z,70.95
2023-04-02T00:56:27.103Z,70.08
2023-04-02T00:57:27.117Z,71.85
2023-04-02T00:58:27.049Z,68.42
2023-04-02T00:59:27.069Z,62.73
2023-04-02T01:00:27.015Z,69.78
2023-04-02T01:01:27.104Z,71.76
2023-04-02T01:02:27.078Z,70.31
2023-04-02T01:03:26.997Z,72.53
2023-04-02T01:04:27.975Z,72.35
2023-04-02T01:05:26.913Z,74.85
2023-04-02T01:06:26.905Z,71.41
2023-04-02T01:07:26.878Z,72.73
2023-04-02T01:08:26.860Z,72.14
2023-04-02T01:09:26.874Z,70.65
2023-04-02T01:10:26.838Z,72.26
2023-04-02T01:11:26.804Z,73.15
2023-04-02T01:12:26.787Z,73.49
2023-04-02T01:13:26.770Z,72.90
2023-04-02T01:14:26.783Z,71.44
2023-04-02T01:15:26.732Z,69.16
2023-04-02T01:16:26.822Z,68.66
2023-04-02T01:17:26.717Z,66.34
2023-04-02T01:18:26.752Z,63.89
2023-04-02T01:19:26.685Z,68.24
2023-04-02T01:20:26.638Z,70.60
2023-04-02T01:21:26.618Z,71.73
2023-04-02T01:22:26.599Z,66.24
2023-04-02T01:23:26.580Z,70.19
2023-04-02T01:24:26.588Z,69.61
2023-04-02T01:25:26.544Z,72.35
2023-04-02T01:26:26.518Z,69.16
2023-04-02T01:27:26.511Z,68.29
2023-04-02T01:28:26.483Z,71.09
2023-04-02T01:29:26.499Z,70.64
2023-04-02T01:30:26.448Z,71.31
2023-04-02T01:31:26.463Z,71.83
2023-04-02T01:32:26.491Z,71.55
2023-04-02T01:33:26.395Z,72.16
2023-04-02T01:34:26.766Z,67.17
2023-04-02T01:35:27.357Z,71.28
2023-04-02T01:36:26.342Z,70.50
2023-04-02T01:37:26.323Z,71.98
2023-04-02T01:38:26.299Z,72.64
2023-04-02T01:39:26.311Z,76.59
2023-04-02T01:40:26.261Z,71.47
2023-04-02T01:41:26.250Z,74.96
2023-04-02T01:42:26.236Z,73.37
2023-04-02T01:43:26.207Z,71.26
2023-04-02T01:44:26.192Z,65.57
2023-04-02T01:45:26.196Z,66.76
2023-04-02T01:46:26.213Z,64.68
2023-04-02T01:47:26.162Z,70.85
2023-04-02T01:48:26.109Z,70.92
2023-04-02T01:49:26.093Z,69.93
2023-04-02T01:50:26.111Z,69.15
2023-04-02T01:51:26.057Z,71.83
2023-04-02T01:52:26.034Z,71.01
2023-04-02T01:53:26.019Z,73.46
2023-04-02T01:54:26.004Z,67.87
2023-04-02T01:55:26.007Z,66.86
2023-04-02T01:56:25.964Z,68.21
2023-04-02T01:57:25.977Z,70.74
2023-04-02T01:58:25.927Z,69.61
2023-04-02T01:59:25.905Z,74.54
2023-04-02T02:00:25.918Z,73.40
2023-04-02T02:01:25.911Z,73.62
2023-04-02T02:02:25.916Z,66.63
2023-04-02T02:03:25.838Z,69.00
2023-04-02T02:04:25.812Z,67.98
2023-04-02T02:05:25.828Z,66.80
2023-04-02T02:06:25.788Z,72.39
2023-04-02T02:07:25.764Z,69.90
2023-04-02T02:08:25.739Z,73.84
2023-04-02T02:09:25.718Z,70.98
2023-04-02T02:10:25.729Z,73.53
2023-04-02T02:11:25.684Z,73.62
2023-04-02T02:12:25.660Z,72.01
2023-04-02T02:13:25.672Z,71.86
2023-04-02T02:14:25.678Z,75.62
2023-04-02T02:15:25.778Z,73.14
2023-04-02T02:16:25.640Z,70.41
2023-04-02T02:17:25.654Z,70.42
2023-04-02T02:18:25.550Z,72.04
2023-04-02T02:19:25.537Z,74.04
2023-04-02T02:20:25.539Z,68.95
2023-04-02T02:21:25.551Z,67.88
2023-04-02T02:22:25.484Z,67.73
2023-04-02T02:23:25.476Z,71.95
2023-04-02T02:24:25.442Z,67.22
2023-04-02T02:25:25.449Z,73.04
2023-04-02T02:26:25.427Z,69.12
2023-04-02T02:27:25.393Z,74.35
2023-04-02T02:28:25.365Z,70.50
2023-04-02T02:29:25.346Z,69.63
2023-04-02T02:30:25.366Z,67.79
2023-04-02T02:31:25.327Z,70.02
2023-04-02T02:32:25.372Z,71.16
2023-04-02T02:33:25.274Z,72.43
2023-04-02T02:34:25.258Z,71.95
2023-04-02T02:35:25.265Z,65.90
2023-04-02T02:36:25.307Z,68.11
2023-04-02T02:37:25.194Z,66.05
2023-04-02T02:38:25.178Z,68.13
2023-04-02T02:39:25.158Z,69.80
2023-04-02T02:40:25.169Z,71.81
2023-04-02T02:41:25.121Z,76.06
2023-04-02T02:42:25.107Z,71.38
2023-04-02T02:43:25.094Z,71.41
2023-04-02T02:44:25.070Z,65.89
2023-04-02T02:45:25.079Z,69.19
2023-04-02T02:46:25.085Z,72.64
2023-04-02T02:47:25.037Z,72.01
2023-04-02T02:48:24.992Z,73.22
2023-04-02T02:49:24.973Z,70.90
2023-04-02T02:50:24.982Z,70.52
2023-04-02T02:51:24.941Z,72.37
2023-04-02T02:52:24.916Z,70.70
2023-04-02T02:53:24.899Z,72.57
2023-04-02T02:54:24.875Z,72.46
2023-04-02T02:55:24.893Z,73.48
2023-04-02T02:56:24.837Z,71.73
2023-04-02T02:57:24.866Z,73.62
2023-04-02T02:58:24.805Z,68.91
2023-04-02T02:59:24.807Z,72.01
2023-04-02T03:00:24.799Z,73.54
2023-04-02T03:01:24.782Z,77.18
2023-04-02T03:02:24.804Z,68.85
2023-04-02T03:03:24.840Z,71.51
2023-04-02T03:04:24.872Z,69.14
2023-04-02T03:05:24.706Z,73.99
2023-04-02T03:06:24.645Z,71.92
2023-04-02T03:07:24.645Z,76.05
2023-04-02T03:08:24.626Z,71.87
2023-04-02T03:09:24.598Z,70.89
2023-04-02T03:10:24.604Z,74.32
2023-04-02T03:11:24.558Z,73.43
2023-04-02T03:12:24.542Z,74.62
2023-04-02T03:13:24.520Z,71.46
2023-04-02T03:14:24.507Z,73.06
2023-04-02T03:15:24.528Z,74.43
2023-04-02T03:16:24.492Z,72.80
2023-04-02T03:17:24.540Z,73.80
2023-04-02T03:18:24.418Z,74.53
2023-04-02T03:19:25.415Z,74.08
2023-04-02T03:20:24.424Z,73.67
2023-04-02T03:21:24.384Z,70.38
2023-04-02T03:22:24.355Z,69.88
2023-04-02T03:23:24.340Z,70.15
2023-04-02T03:24:24.316Z,69.42
2023-04-02T03:25:24.328Z,76.09
2023-04-02T03:26:24.293Z,73.31
2023-04-02T03:27:24.282Z,75.43
2023-04-02T03:28:24.246Z,72.63
2023-04-02T03:29:24.227Z,72.20
2023-04-02T03:30:24.251Z,76.11
2023-04-02T03:31:24.236Z,74.10
2023-04-02T03:32:24.169Z,76.18
2023-04-02T03:33:24.160Z,72.27
2023-04-02T03:34:24.139Z,72.41
2023-04-02T03:35:24.144Z,74.56
2023-04-02T03:36:24.133Z,73.80
2023-04-02T03:37:24.082Z,76.33
2023-04-02T03:38:24.069Z,77.73
2023-04-02T03:39:24.043Z,73.41
2023-04-02T03:40:24.052Z,70.55
2023-04-02T03:41:24.007Z,71.45
2023-04-02T03:42:23.982Z,72.56
2023-04-02T03:43:23.964Z,73.02
2023-04-02T03:44:23.954Z,77.01
2023-04-02T03:45:23.960Z,72.98
2023-04-02T03:46:23.967Z,72.19
2023-04-02T03:47:23.908Z,73.65
2023-04-02T03:48:23.890Z,72.18
2023-04-02T03:49:23.876Z,74.30
2023-04-02T03:50:23.914Z,75.42
2023-04-02T03:51:23.847Z,75.04
2023-04-02T03:52:23.811Z,73.05
2023-04-02T03:53:23.810Z,73.54
2023-04-02T03:54:23.769Z,70.02
2023-04-02T03:55:23.773Z,72.62
2023-04-02T03:56:23.728Z,74.02
2023-04-02T03:57:23.753Z,72.75
2023-04-02T03:58:23.695Z,74.66
2023-04-02T03:59:23.672Z,74.85
2023-04-02T04:00:23.687Z,76.04
2023-04-02T04:01:23.633Z,73.22
2023-04-02T04:02:23.659Z,72.91
2023-04-02T04:03:23.595Z,72.15
2023-04-02T04:04:23.618Z,73.06
2023-04-02T04:05:23.588Z,74.38
2023-04-02T04:06:23.541Z,76.07
2023-04-02T04:07:23.518Z,78.88
2023-04-02T04:08:23.503Z,75.81
2023-04-02T04:09:23.484Z,74.16
2023-04-02T04:10:23.498Z,76.08
2023-04-02T04:11:23.492Z,77.23
2023-04-02T04:12:23.432Z,73.94
2023-04-02T04:13:23.411Z,76.11
2023-04-02T04:14:23.399Z,76.22
2023-04-02T04:15:23.409Z,70.88
2023-04-02T04:16:23.365Z,69.69
2023-04-02T04:17:23.339Z,75.29
2023-04-02T04:18:23.323Z,76.78
2023-04-02T04:19:23.308Z,74.48
2023-04-02T04:20:23.310Z,70.81
2023-04-02T04:21:23.284Z,70.06
2023-04-02T04:22:23.249Z,73.17
2023-04-02T04:23:23.231Z,74.10
2023-04-02T04:24:23.219Z,76.82
2023-04-02T04:25:23.219Z,73.40
2023-04-02T04:26:23.180Z,75.70
2023-04-02T04:27:23.160Z,75.34
2023-04-02T04:28:23.143Z,77.13
2023-04-02T04:29:23.129Z,76.30
2023-04-02T04:30:23.120Z,73.29
2023-04-02T04:31:25.292Z,73.71
2023-04-02T04:32:23.067Z,74.55
2023-04-02T04:33:23.121Z,75.17
2023-04-02T04:34:23.033Z,75.14
2023-04-02T04:35:23.052Z,77.29
2023-04-02T04:36:22.992Z,73.89
2023-04-02T04:37:22.995Z,75.03
2023-04-02T04:38:22.960Z,76.49
2023-04-02T04:39:22.932Z,78.25
2023-04-02T04:40:23.952Z,74.64
2023-04-02T04:41:22.906Z,77.26
2023-04-02T04:42:22.892Z,75.35
2023-04-02T04:43:22.877Z,74.89
2023-04-02T04:44:22.856Z,73.50
2023-04-02T04:45:22.863Z,76.79
2023-04-02T04:46:22.879Z,77.56
2023-04-02T04:47:22.816Z,71.99
2023-04-02T04:48:22.772Z,75.32
2023-04-02T04:49:22.796Z,78.13
2023-04-02T04:50:22.766Z,77.32
2023-04-02T04:51:23.017Z,75.44
2023-04-02T04:52:22.715Z,77.38
2023-04-02T04:53:22.684Z,76.94
2023-04-02T04:54:22.672Z,76.77
2023-04-02T04:55:22.675Z,78.59
2023-04-02T04:56:22.652Z,75.38
2023-04-02T04:57:22.735Z,76.01
2023-04-02T04:58:22.800Z,75.99
2023-04-02T04:59:22.578Z,76.99
2023-04-02T05:00:22.606Z,78.66
2023-04-02T05:01:22.604Z,76.59
2023-04-02T05:02:22.556Z,75.68
2023-04-02T05:03:22.513Z,77.41
2023-04-02T05:04:22.516Z,76.75
2023-04-02T05:05:22.502Z,72.40
2023-04-02T05:06:22.445Z,78.63
2023-04-02T05:07:22.424Z,76.41
2023-04-02T05:08:22.405Z,76.61
2023-04-02T05:09:22.396Z,77.14
2023-04-02T05:10:22.411Z,77.74
2023-04-02T05:11:22.385Z,74.37
2023-04-02T05:12:22.333Z,75.63
2023-04-02T05:13:22.320Z,77.13
2023-04-02T05:14:22.299Z,76.78
2023-04-02T05:15:22.284Z,76.34
2023-04-02T05:16:22.307Z,78.67
2023-04-02T05:17:22.259Z,77.66
2023-04-02T05:18:22.234Z,78.49
2023-04-02T05:19:22.211Z,78.54
2023-04-02T05:20:22.193Z,76.55
2023-04-02T05:21:22.212Z,77.09
2023-04-02T05:22:22.167Z,76.76
2023-04-02T05:23:22.136Z,77.13
2023-04-02T05:24:22.125Z,77.77
2023-04-02T05:25:22.117Z,77.85
2023-04-02T05:26:22.109Z,76.79
2023-04-02T05:27:22.063Z,73.62
2023-04-02T05:28:22.051Z,76.88
2023-04-02T05:29:22.038Z,79.13
2023-04-02T05:30:22.019Z,75.69
2023-04-02T05:31:22.047Z,77.63
2023-04-02T05:32:21.976Z,76.52
2023-04-02T05:33:21.956Z,77.78
2023-04-02T05:34:21.940Z,78.92
2023-04-02T05:35:21.921Z,78.62
2023-04-02T05:36:21.948Z,78.06
2023-04-02T05:37:21.917Z,79.46
2023-04-02T05:38:21.906Z,75.51
2023-04-02T05:39:21.848Z,76.20
2023-04-02T05:40:22.363Z,77.57
2023-04-02T05:41:21.842Z,78.23
2023-04-02T05:42:21.940Z,77.03
2023-04-02T05:43:21.783Z,77.38
2023-04-02T05:44:21.758Z,77.29
2023-04-02T05:45:21.798Z,77.56
2023-04-02T05:46:21.788Z,76.98
2023-04-02T05:47:21.751Z,77.90
2023-04-02T05:48:21.690Z,78.34
2023-04-02T05:49:21.662Z,74.13
2023-04-02T05:50:21.647Z,77.75
2023-04-02T05:51:21.657Z,79.08
2023-04-02T05:52:21.611Z,78.19
2023-04-02T05:53:21.587Z,78.90
2023-04-02T05:54:21.585Z,79.45
2023-04-02T05:55:21.570Z,76.78
2023-04-02T05:56:21.578Z,78.98
2023-04-02T05:57:24.943Z,78.28
2023-04-02T05:58:35.471Z,79.07
2023-04-02T05:59:23.508Z,78.08
2023-04-02T06:00:21.487Z,78.26
2023-04-02T06:01:21.495Z,79.16
2023-04-02T06:02:21.447Z,75.71
2023-04-02T06:03:21.431Z,78.56
2023-04-02T06:04:21.391Z,79.17
2023-04-02T06:05:21.372Z,77.84
2023-04-02T06:06:21.384Z,79.48
2023-04-02T06:07:21.333Z,76.34
2023-04-02T06:08:21.318Z,77.68
2023-04-02T06:09:21.295Z,79.68
2023-04-02T06:10:22.802Z,78.15
2023-04-02T06:11:21.288Z,77.96
2023-04-02T06:12:21.237Z,77.00
2023-04-02T06:13:21.221Z,76.02
2023-04-02T06:14:21.205Z,74.00
2023-04-02T06:15:21.194Z,76.53
2023-04-02T06:16:21.215Z,78.25
2023-04-02T06:17:21.156Z,78.02
2023-04-02T06:18:21.147Z,77.72
2023-04-02T06:19:21.113Z,78.16
2023-04-02T06:20:21.093Z,80.02
2023-04-02T06:21:21.106Z,77.32
2023-04-02T06:22:21.048Z,78.54
2023-04-02T06:23:21.035Z,76.92
2023-04-02T06:24:21.049Z,78.90
2023-04-02T06:25:21.003Z,78.90
2023-04-02T06:26:21.015Z,78.83
2023-04-02T06:27:20.969Z,77.02
2023-04-02T06:28:20.946Z,78.84
2023-04-02T06:29:20.935Z,78.78
2023-04-02T06:30:20.922Z,76.93
2023-04-02T06:31:21.029Z,78.16
2023-04-02T06:32:20.890Z,77.94
2023-04-02T06:33:20.850Z,78.09
2023-04-02T06:34:20.837Z,76.61
2023-04-02T06:35:20.814Z,79.35
2023-04-02T06:36:20.908Z,77.80
2023-04-02T06:37:21.768Z,78.10
2023-04-02T06:38:20.758Z,78.33
2023-04-02T06:39:20.750Z,76.55
2023-04-02T06:40:20.727Z,76.74
2023-04-02T06:41:20.742Z,78.15
2023-04-02T06:42:20.692Z,77.06
2023-04-02T06:43:20.669Z,79.14
2023-04-02T06:44:20.650Z,79.42
2023-04-02T06:45:20.632Z,79.32
2023-04-02T06:46:20.697Z,77.96
2023-04-02T06:47:20.595Z,79.70
2023-04-02T06:48:20.587Z,79.30
2023-04-02T06:49:20.562Z,77.20
2023-04-02T06:50:20.553Z,78.02
2023-04-02T06:51:20.561Z,78.00
2023-04-02T06:52:20.508Z,78.02
2023-04-02T06:53:20.492Z,77.83
2023-04-02T06:54:20.475Z,79.39
2023-04-02T06:55:20.490Z,79.07
2023-04-02T06:56:20.481Z,77.99
2023-04-02T06:57:20.435Z,78.81
2023-04-02T06:58:20.390Z,78.99
2023-04-02T06:59:20.388Z,77.88
2023-04-02T07:00:20.385Z,77.26
2023-04-02T07:01:20.406Z,80.87
2023-04-02T07:02:20.323Z,79.62
2023-04-02T07:03:20.313Z,78.89
2023-04-02T07:04:20.318Z,79.18
2023-04-02T07:05:20.260Z,78.88
2023-04-02T07:06:20.292Z,78.05
2023-04-02T07:07:20.240Z,79.76
2023-04-02T07:08:20.205Z,77.83
2023-04-02T07:09:20.197Z,79.55
2023-04-02T07:10:20.276Z,79.59
2023-04-02T07:11:20.884Z,78.88
2023-04-02T07:12:21.141Z,78.62
2023-04-02T07:13:20.130Z,80.06
2023-04-02T07:14:20.108Z,80.20
2023-04-02T07:15:20.203Z,80.73
2023-04-02T07:16:20.118Z,78.99
2023-04-02T07:17:20.051Z,79.49
2023-04-02T07:18:20.024Z,80.44
2023-04-02T07:19:20.041Z,77.71
2023-04-02T07:20:19.990Z,79.04
2023-04-02T07:21:20.004Z,80.79
2023-04-02T07:22:19.961Z,79.19
2023-04-02T07:23:19.936Z,78.98
2023-04-02T07:24:19.966Z,80.41
2023-04-02T07:25:19.896Z,78.04
2023-04-02T07:26:19.908Z,80.45
2023-04-02T07:27:19.860Z,80.55
2023-04-02T07:28:21.955Z,79.91
2023-04-02T07:29:19.871Z,80.81
2023-04-02T07:30:19.815Z,81.31
2023-04-02T07:31:19.894Z,79.62
2023-04-02T07:32:19.779Z,79.51
2023-04-02T07:33:19.759Z,78.91
2023-04-02T07:34:19.911Z,79.31
2023-04-02T07:35:19.748Z,79.25
2023-04-02T07:36:19.772Z,79.74
2023-04-02T07:37:19.689Z,81.44
2023-04-02T07:38:19.669Z,80.62
2023-04-02T07:39:19.674Z,80.08
2023-04-02T07:40:19.627Z,81.05
2023-04-02T07:41:19.690Z,78.57
2023-04-02T07:42:19.597Z,77.91
2023-04-02T07:43:19.573Z,81.51
2023-04-02T07:44:19.550Z,80.16
2023-04-02T07:45:19.541Z,78.61
2023-04-02T07:46:19.531Z,80.71
2023-04-02T07:47:19.527Z,81.28
2023-04-02T07:48:19.476Z,79.72
2023-04-02T07:49:19.457Z,79.37
2023-04-02T07:50:19.455Z,78.23
2023-04-02T07:51:19.419Z,80.51
2023-04-02T07:52:19.434Z,79.89
2023-04-02T07:53:19.381Z,80.37
2023-04-02T07:54:19.379Z,80.86
2023-04-02T07:55:19.345Z,81.26
2023-04-02T07:56:19.328Z,80.34
2023-04-02T07:57:19.340Z,78.80
2023-04-02T07:58:19.288Z,79.11
2023-04-02T07:59:19.266Z,80.03
2023-04-02T08:00:19.266Z,81.53
2023-04-02T08:01:19.230Z,80.39
2023-04-02T08:02:19.333Z,81.12
2023-04-02T08:03:19.299Z,79.29
2023-04-02T08:04:19.378Z,80.83
2023-04-02T08:05:19.154Z,81.06
2023-04-02T08:06:19.140Z,79.83
2023-04-02T08:07:19.144Z,81.10
2023-04-02T08:08:19.099Z,79.85
2023-04-02T08:09:19.141Z,81.58
2023-04-02T08:10:19.062Z,81.18
2023-04-02T08:11:19.047Z,79.16
2023-04-02T08:12:19.063Z,79.31
2023-04-02T08:13:19.023Z,81.29
2023-04-02T08:14:18.987Z,80.30
2023-04-02T08:15:18.998Z,79.38
2023-04-02T08:16:19.014Z,79.97
2023-04-02T08:17:18.969Z,81.41
2023-04-02T08:18:18.926Z,80.92
2023-04-02T08:19:18.905Z,80.70
2023-04-02T08:20:18.910Z,79.98
2023-04-02T08:21:18.883Z,79.98
2023-04-02T08:22:18.896Z,79.58
2023-04-02T08:23:18.830Z,80.47
2023-04-02T08:24:18.807Z,80.45
2023-04-02T08:25:18.794Z,81.93
2023-04-02T08:26:18.895Z,80.22
2023-04-02T08:27:18.777Z,78.08
2023-04-02T08:28:18.747Z,81.07
2023-04-02T08:29:18.729Z,80.16
2023-04-02T08:30:18.704Z,82.94
2023-04-02T08:31:18.700Z,82.00
2023-04-02T08:32:18.714Z,82.38
2023-04-02T08:33:18.655Z,81.21
2023-04-02T08:34:18.626Z,80.45
2023-04-02T08:35:18.612Z,81.14
2023-04-02T08:36:18.631Z,79.27
2023-04-02T08:37:18.613Z,81.17
2023-04-02T08:38:18.580Z,79.59
2023-04-02T08:39:18.528Z,79.37
2023-04-02T08:40:18.544Z,82.04
2023-04-02T08:41:18.504Z,80.97
2023-04-02T08:42:18.500Z,81.43
2023-04-02T08:43:18.459Z,80.43
2023-04-02T08:44:18.433Z,81.39
2023-04-02T08:45:25.081Z,80.84
2023-04-02T08:46:20.413Z,79.58
2023-04-02T08:47:18.435Z,80.40
2023-04-02T08:48:18.365Z,80.92
2023-04-02T08:49:18.334Z,81.53
2023-04-02T08:50:18.355Z,80.89
2023-04-02T08:51:18.319Z,80.88
2023-04-02T08:52:18.311Z,82.34
2023-04-02T08:53:18.268Z,81.68
2023-04-02T08:54:18.247Z,81.84
2023-04-02T08:55:18.244Z,82.06
2023-04-02T08:56:18.213Z,80.18
2023-04-02T08:57:18.245Z,81.46
2023-04-02T08:58:18.174Z,82.53
2023-04-02T08:59:18.156Z,81.66
2023-04-02T09:00:18.161Z,80.35
2023-04-02T09:01:18.169Z,81.02
2023-04-02T09:02:18.138Z,81.52
2023-04-02T09:03:18.075Z,81.30
2023-04-02T09:04:18.136Z,79.25
2023-04-02T09:05:18.048Z,81.60
2023-04-02T09:06:18.076Z,81.15
2023-04-02T09:07:18.033Z,81.48
2023-04-02T09:08:17.994Z,80.60
2023-04-02T09:09:17.973Z,80.67
2023-04-02T09:10:17.949Z,80.82
2023-04-02T09:11:17.932Z,80.89
2023-04-02T09:12:17.979Z,81.12
2023-04-02T09:13:17.893Z,79.86
2023-04-02T09:14:17.885Z,82.68
2023-04-02T09:15:17.870Z,82.50
2023-04-02T09:16:17.874Z,82.76
2023-04-02T09:17:17.849Z,82.20
2023-04-02T09:18:17.934Z,81.24
2023-04-02T09:19:17.790Z,81.47
2023-04-02T09:20:17.782Z,81.60
2023-04-02T09:21:17.747Z,81.81
2023-04-02T09:22:17.755Z,82.06
2023-04-02T09:23:17.720Z,82.95
2023-04-02T09:24:17.689Z,82.88
2023-04-02T09:25:17.683Z,82.45
2023-04-02T09:26:17.794Z,82.28
2023-04-02T09:27:18.677Z,82.20
2023-04-02T09:28:17.613Z,80.61
2023-04-02T09:29:17.617Z,81.68
2023-04-02T09:30:17.591Z,81.22
2023-04-02T09:31:17.661Z,82.34
2023-04-02T09:32:17.579Z,81.67
2023-04-02T09:33:17.530Z,80.87
2023-04-02T09:34:17.509Z,83.00
2023-04-02T09:35:25.990Z,81.89
2023-04-02T09:36:19.544Z,81.36
2023-04-02T09:37:17.493Z,81.95
2023-04-02T09:38:17.428Z,82.82
2023-04-02T09:39:17.421Z,82.44
2023-04-02T09:40:17.395Z,81.66
2023-04-02T09:41:17.372Z,83.03
2023-04-02T09:42:17.388Z,83.02
2023-04-02T09:43:17.349Z,81.75
2023-04-02T09:44:17.323Z,81.38
2023-04-02T09:45:17.307Z,81.43
2023-04-02T09:46:17.310Z,81.28
2023-04-02T09:47:17.296Z,82.10
2023-04-02T09:48:17.245Z,80.80
2023-04-02T09:49:17.234Z,83.22
2023-04-02T09:50:17.221Z,81.63
2023-04-02T09:51:17.193Z,81.56
2023-04-02T09:52:17.209Z,82.91
2023-04-02T09:53:17.164Z,81.79
2023-04-02T09:54:17.137Z,82.51
2023-04-02T09:55:17.122Z,82.00
2023-04-02T09:56:17.109Z,82.29
2023-04-02T09:57:17.157Z,83.21
2023-04-02T09:58:17.096Z,81.77
2023-04-02T09:59:17.048Z,81.31
2023-04-02T10:00:25.929Z,82.29
2023-04-02T10:01:19.036Z,83.30
2023-04-02T10:02:17.029Z,83.18
2023-04-02T10:03:16.975Z,80.86
2023-04-02T10:04:16.955Z,80.95
2023-04-02T10:05:23.699Z,80.32
2023-04-02T10:06:18.915Z,81.79
2023-04-02T10:07:16.939Z,83.16
2023-04-02T10:08:16.883Z,83.48
2023-04-02T10:09:16.858Z,81.48
2023-04-02T10:10:16.853Z,82.49
2023-04-02T10:11:16.823Z,80.16
2023-04-02T10:12:16.849Z,82.36
2023-04-02T10:13:16.799Z,82.05
2023-04-02T10:14:16.768Z,79.24
2023-04-02T10:15:16.766Z,80.86
2023-04-02T10:16:16.779Z,82.28
2023-04-02T10:17:16.833Z,81.16
2023-04-02T10:18:16.698Z,82.29
2023-04-02T10:19:16.865Z,82.39
2023-04-02T10:20:16.666Z,80.77
2023-04-02T10:21:16.650Z,80.60
2023-04-02T10:22:16.655Z,82.10
2023-04-02T10:23:16.615Z,81.16
2023-04-02T10:24:16.590Z,82.29
2023-04-02T10:25:16.568Z,82.28
2023-04-02T10:26:16.554Z,80.02
2023-04-02T10:27:16.571Z,82.87
2023-04-02T10:28:16.517Z,83.09
2023-04-02T10:29:16.512Z,81.54
2023-04-02T10:30:16.490Z,81.57
2023-04-02T10:31:16.481Z,81.97
2023-04-02T10:32:16.476Z,82.22
2023-04-02T10:33:16.426Z,80.65
2023-04-02T10:34:16.415Z,79.82
2023-04-02T10:35:16.399Z,81.53
2023-04-02T10:36:16.394Z,80.72
2023-04-02T10:37:16.358Z,81.70
2023-04-02T10:38:16.370Z,82.17
2023-04-02T10:39:16.330Z,82.10
2023-04-02T10:40:16.299Z,81.10
2023-04-02T10:41:16.279Z,83.10
2023-04-02T10:42:16.261Z,82.19
2023-04-02T10:43:16.294Z,81.66
2023-04-02T10:44:20.234Z,83.07
2023-04-02T10:45:17.220Z,81.82
2023-04-02T10:46:16.242Z,81.43
2023-04-02T10:47:16.168Z,82.09
2023-04-02T10:48:16.182Z,81.81
2023-04-02T10:49:16.160Z,81.75
2023-04-02T10:50:16.125Z,81.12
2023-04-02T10:51:16.103Z,81.42
2023-04-02T10:52:16.077Z,81.38
2023-04-02T10:53:16.086Z,81.20
2023-04-02T10:54:16.047Z,81.97
2023-04-02T10:55:16.029Z,82.01
2023-04-02T10:56:16.012Z,82.16
2023-04-02T10:57:16.010Z,82.76
2023-04-02T10:58:16.010Z,82.51
2023-04-02T10:59:15.955Z,81.71
2023-04-02T11:00:15.951Z,82.62
2023-04-02T11:01:15.940Z,81.33
2023-04-02T11:02:15.931Z,82.49
2023-04-02T11:03:16.041Z,80.02
2023-04-02T11:04:15.858Z,82.96
2023-04-02T11:05:15.849Z,81.28
2023-04-02T11:06:15.824Z,82.50
2023-04-02T11:07:15.799Z,82.88
2023-04-02T11:08:15.811Z,82.51
2023-04-02T11:09:15.769Z,83.15
2023-04-02T11:10:15.747Z,81.61
2023-04-02T11:11:15.750Z,82.60
2023-04-02T11:12:15.710Z,80.45
2023-04-02T11:13:15.718Z,81.96
2023-04-02T11:14:15.670Z,82.00
2023-04-02T11:15:15.678Z,83.05
2023-04-02T11:16:15.666Z,81.21
2023-04-02T11:17:15.614Z,81.13
2023-04-02T11:18:15.628Z,80.82
2023-04-02T11:19:15.623Z,80.96
2023-04-02T11:20:15.564Z,82.41
2023-04-02T11:21:15.541Z,81.26
2023-04-02T11:22:15.526Z,81.75
2023-04-02T11:23:15.542Z,82.49
2023-04-02T11:24:15.533Z,81.67
2023-04-02T11:25:15.474Z,81.20
2023-04-02T11:26:15.453Z,81.87
2023-04-02T11:27:15.451Z,81.68
2023-04-02T11:28:15.452Z,81.87
2023-04-02T11:29:15.399Z,80.42
2023-04-02T11:30:15.373Z,81.59
2023-04-02T11:31:15.389Z,82.41
2023-04-02T11:32:15.352Z,81.58
2023-04-02T11:33:18.668Z,82.17
2023-04-02T11:34:16.317Z,81.25
2023-04-02T11:35:15.287Z,81.71
2023-04-02T11:36:16.330Z,82.51
2023-04-02T11:37:15.256Z,81.94
2023-04-02T11:38:15.275Z,82.30
2023-04-02T11:39:17.765Z,82.42
2023-04-02T11:40:16.220Z,80.99
2023-04-02T11:41:15.195Z,81.10
2023-04-02T11:42:15.155Z,81.51
2023-04-02T11:43:15.166Z,80.70
2023-04-02T11:44:15.124Z,81.73
2023-04-02T11:45:15.098Z,81.96
2023-04-02T11:46:15.101Z,81.71
2023-04-02T11:47:15.070Z,81.21
2023-04-02T11:48:15.079Z,81.50
2023-04-02T11:49:16.058Z,81.77
2023-04-02T11:50:15.022Z,81.28
2023-04-02T11:51:15.011Z,82.21
2023-04-02T11:52:14.977Z,80.51
2023-04-02T11:53:15.003Z,81.21
2023-04-02T11:54:14.941Z,80.18
2023-04-02T11:55:14.931Z,81.25
2023-04-02T11:56:14.905Z,82.01
2023-04-02T11:57:14.931Z,80.63
2023-04-02T11:58:14.891Z,82.21
2023-04-02T11:59:14.842Z,80.82
2023-04-02T12:00:16.893Z,80.67
2023-04-02T12:01:14.851Z,82.10
2023-04-02T12:02:14.829Z,80.29
2023-04-02T12:03:14.847Z,80.69
2023-04-02T12:04:14.804Z,81.65
2023-04-02T12:05:14.797Z,82.21
2023-04-02T12:06:14.714Z,81.94
2023-04-02T12:07:14.690Z,81.39
2023-04-02T12:08:14.672Z,81.24
2023-04-02T12:09:14.694Z,81.47
2023-04-02T12:10:14.639Z,82.53
2023-04-02T12:11:14.622Z,81.53
2023-04-02T12:12:14.600Z,82.39
2023-04-02T12:13:14.609Z,80.65
2023-04-02T12:14:14.585Z,80.53
2023-04-02T12:15:14.537Z,82.20
2023-04-02T12:16:15.576Z,81.95
2023-04-02T12:17:14.592Z,81.02
2023-04-02T12:18:14.516Z,82.38
2023-04-02T12:19:14.468Z,82.47
2023-04-02T12:20:14.449Z,82.80
2023-04-02T12:21:14.436Z,81.09
2023-04-02T12:22:14.418Z,80.74
2023-04-02T12:23:14.423Z,81.93
2023-04-02T12:24:14.379Z,80.93
2023-04-02T12:25:14.358Z,80.60
2023-04-02T12:26:14.359Z,81.61
2023-04-02T12:27:14.385Z,81.02
2023-04-02T12:28:14.339Z,81.34
2023-04-02T12:29:14.327Z,81.19
2023-04-02T12:30:14.293Z,82.02
2023-04-02T12:31:14.311Z,81.98
2023-04-02T12:32:14.230Z,81.52
2023-04-02T12:33:14.285Z,81.17
2023-04-02T12:34:14.232Z,81.22
2023-04-02T12:35:14.188Z,82.35
2023-04-02T12:36:14.342Z,81.86
2023-04-02T12:37:14.142Z,81.24
2023-04-02T12:38:14.148Z,81.16
2023-04-02T12:39:14.098Z,80.14
2023-04-02T12:40:14.102Z,81.69
2023-04-02T12:41:14.055Z,79.89
2023-04-02T12:42:14.034Z,79.60
2023-04-02T12:43:14.066Z,81.12
2023-04-02T12:44:13.994Z,81.88
2023-04-02T12:45:13.975Z,80.62
2023-04-02T12:46:14.023Z,79.75
2023-04-02T12:47:13.941Z,80.62
2023-04-02T12:48:14.001Z,81.64
2023-04-02T12:49:13.912Z,81.15
2023-04-02T12:50:13.889Z,80.37
2023-04-02T12:51:13.864Z,80.68
2023-04-02T12:52:13.843Z,82.04